createdAt,value
2017-11-18T00:00:42.194Z,1018.16
2017-11-18T00:01:50.863Z,1018.17
2017-11-18T00:02:59.443Z,1018.17
2017-11-18T00:04:08.079Z,1018.2
2017-11-18T00:05:16.693Z,1018.17
2017-11-18T00:06:25.318Z,1018.13
2017-11-18T00:07:34.207Z,1018.15
2017-11-18T00:08:42.818Z,1018.13
2017-11-18T00:09:51.721Z,1018.12
2017-11-18T00:11:00.348Z,1018.12
2017-11-18T00:12:09.237Z,1018.11
2017-11-18T00:13:17.859Z,1018.06
2017-11-18T00:14:26.491Z,1018.1
2017-11-18T00:15:35.109Z,1018.05
2017-11-18T00:16:43.729Z,1018.02
2017-11-18T00:17:52.360Z,1017.95
2017-11-18T00:19:00.973Z,1018
2017-11-18T00:20:09.597Z,1018.04
2017-11-18T00:21:18.221Z,1018.03
2017-11-18T00:22:26.838Z,1018.05
2017-11-18T00:23:35.473Z,1018.09
2017-11-18T00:24:44.089Z,1018.01
2017-11-18T00:25:52.716Z,1018
2017-11-18T00:27:01.332Z,1018.01
2017-11-18T00:28:09.956Z,1017.98
2017-11-18T00:29:18.580Z,1017.97
2017-11-18T00:30:27.199Z,1018
2017-11-18T00:31:35.819Z,1018.01
2017-11-18T00:32:44.448Z,1017.99
2017-11-18T00:33:53.071Z,1017.99
2017-11-18T00:35:01.694Z,1017.97
2017-11-18T00:36:10.315Z,1017.98
2017-11-18T00:37:18.933Z,1018
2017-11-18T00:38:27.562Z,1018.02
2017-11-18T00:39:36.725Z,1018.03
2017-11-18T00:40:45.339Z,1018.02
2017-11-18T00:41:53.973Z,1018
2017-11-18T00:43:02.596Z,1017.96
2017-11-18T00:44:11.215Z,1017.94
2017-11-18T00:45:19.845Z,1017.89
2017-11-18T00:46:28.464Z,1017.86
2017-11-18T00:47:37.086Z,1017.84
2017-11-18T00:48:45.740Z,1017.85
2017-11-18T00:49:54.333Z,1017.85
2017-11-18T00:51:03.233Z,1017.82
2017-11-18T00:52:11.855Z,1017.81
2017-11-18T00:53:20.472Z,1017.8
2017-11-18T00:54:29.098Z,1017.77
2017-11-18T00:55:37.716Z,1017.72
2017-11-18T00:56:46.336Z,1017.71
2017-11-18T00:57:54.964Z,1017.66
2017-11-18T00:59:03.585Z,1017.67
2017-11-18T01:00:12.202Z,1017.6
2017-11-18T01:01:21.359Z,1017.53
2017-11-18T01:02:29.981Z,1017.53
2017-11-18T01:03:38.606Z,1017.53
2017-11-18T01:04:47.228Z,1017.53
2017-11-18T01:05:55.845Z,1017.53
2017-11-18T01:07:04.474Z,1017.55
2017-11-18T01:08:13.099Z,1017.56
2017-11-18T01:09:21.723Z,1017.53
2017-11-18T01:10:30.342Z,1017.54
2017-11-18T01:11:38.965Z,1017.54
2017-11-18T01:12:47.587Z,1017.53
2017-11-18T01:13:56.215Z,1017.45
2017-11-18T01:15:04.846Z,1017.45
2017-11-18T01:16:13.458Z,1017.42
2017-11-18T01:17:22.088Z,1017.41
2017-11-18T01:18:30.702Z,1017.38
2017-11-18T01:19:39.326Z,1017.39
2017-11-18T01:20:47.949Z,1017.33
2017-11-18T01:21:56.562Z,1017.35
2017-11-18T01:23:05.185Z,1017.33
2017-11-18T01:24:13.812Z,1017.27
2017-11-18T01:25:22.434Z,1017.32
2017-11-18T01:26:31.060Z,1017.27
2017-11-18T01:27:39.676Z,1017.3
2017-11-18T01:28:48.301Z,1017.29
2017-11-18T01:29:56.924Z,1017.26
2017-11-18T01:31:05.548Z,1017.25
2017-11-18T01:32:14.174Z,1017.26
2017-11-18T01:33:22.791Z,1017.26
2017-11-18T01:34:31.416Z,1017.28
2017-11-18T01:35:40.044Z,1017.23
2017-11-18T01:36:48.664Z,1017.23
2017-11-18T01:37:57.286Z,1017.24
2017-11-18T01:39:05.913Z,1017.2
2017-11-18T01:40:14.530Z,1017.14
2017-11-18T01:41:23.153Z,1017.09
2017-11-18T01:42:31.783Z,1017.08
2017-11-18T01:43:40.400Z,1017.02
2017-11-18T01:44:49.555Z,1017.06
2017-11-18T01:45:58.182Z,1017.07
2017-11-18T01:47:07.071Z,1017.06
2017-11-18T01:48:15.697Z,1017.06
2017-11-18T01:49:24.314Z,1016.95
2017-11-18T01:50:32.936Z,1017.01
2017-11-18T01:51:41.565Z,1017.01
2017-11-18T01:52:50.185Z,1017.02
2017-11-18T01:53:58.802Z,1017.06
2017-11-18T01:55:07.437Z,1016.97
2017-11-18T01:56:16.049Z,1016.95
2017-11-18T01:57:24.678Z,1016.9
2017-11-18T01:58:33.297Z,1016.9
2017-11-18T01:59:42.189Z,1016.89
2017-11-18T02:00:51.073Z,1016.88
2017-11-18T02:01:59.696Z,1016.84
2017-11-18T02:03:08.313Z,1016.78
2017-11-18T02:04:16.940Z,1016.75
2017-11-18T02:05:25.557Z,1016.72
2017-11-18T02:06:34.179Z,1016.74
2017-11-18T02:07:42.809Z,1016.69
2017-11-18T02:08:51.432Z,1016.67
2017-11-18T02:10:00.053Z,1016.64
2017-11-18T02:11:08.679Z,1016.64
2017-11-18T02:12:17.303Z,1016.61
2017-11-18T02:13:25.919Z,1016.54
2017-11-18T02:14:34.541Z,1016.52
2017-11-18T02:15:43.160Z,1016.54
2017-11-18T02:16:51.789Z,1016.54
2017-11-18T02:18:00.408Z,1016.52
2017-11-18T02:19:09.028Z,1016.52
2017-11-18T02:20:17.653Z,1016.53
2017-11-18T02:21:26.280Z,1016.46
2017-11-18T02:22:34.898Z,1016.45
2017-11-18T02:23:43.525Z,1016.44
2017-11-18T02:24:52.147Z,1016.42
2017-11-18T02:26:00.776Z,1016.46
2017-11-18T02:27:09.396Z,1016.47
2017-11-18T02:28:18.315Z,1016.52
2017-11-18T02:29:26.947Z,1016.51
2017-11-18T02:30:35.565Z,1016.5
2017-11-18T02:31:44.458Z,1016.48
2017-11-18T02:32:53.079Z,1016.46
2017-11-18T02:34:01.699Z,1016.47
2017-11-18T02:35:10.331Z,1016.43
2017-11-18T02:36:18.956Z,1016.42
2017-11-18T02:37:27.862Z,1016.38
2017-11-18T02:38:36.486Z,1016.39
2017-11-18T02:39:45.116Z,1016.38
2017-11-18T02:40:54.004Z,1016.4
2017-11-18T02:42:02.633Z,1016.38
2017-11-18T02:43:11.256Z,1016.41
2017-11-18T02:44:19.873Z,1016.31
2017-11-18T02:45:28.502Z,1016.3
2017-11-18T02:46:37.407Z,1016.27
2017-11-18T02:47:46.049Z,1016.19
2017-11-18T02:48:54.653Z,1016.22
2017-11-18T02:50:03.269Z,1016.21
2017-11-18T02:51:11.896Z,1016.16
2017-11-18T02:52:20.515Z,1016.18
2017-11-18T02:53:29.145Z,1016.12
2017-11-18T02:54:37.762Z,1016.11
2017-11-18T02:55:46.381Z,1016.08
2017-11-18T02:56:55.004Z,1016.07
2017-11-18T02:58:03.629Z,1016.05
2017-11-18T02:59:12.250Z,1016.07
2017-11-18T03:00:20.876Z,1016.05
2017-11-18T03:01:29.761Z,1016.02
2017-11-18T03:02:38.391Z,1016.06
2017-11-18T03:03:47.011Z,1015.99
2017-11-18T03:04:55.635Z,1016.02
2017-11-18T03:06:04.264Z,1016.02
2017-11-18T03:07:12.891Z,1016
2017-11-18T03:08:21.508Z,1016
2017-11-18T03:09:30.132Z,1015.96
2017-11-18T03:10:38.757Z,1016.01
2017-11-18T03:11:47.377Z,1015.94
2017-11-18T03:12:56.001Z,1015.95
2017-11-18T03:14:04.627Z,1015.9
2017-11-18T03:15:13.251Z,1015.91
2017-11-18T03:16:21.877Z,1015.88
2017-11-18T03:17:30.764Z,1015.88
2017-11-18T03:18:39.388Z,1015.89
2017-11-18T03:19:48.013Z,1015.86
2017-11-18T03:20:56.625Z,1015.87
2017-11-18T03:22:05.257Z,1015.84
2017-11-18T03:23:13.873Z,1015.86
2017-11-18T03:24:22.499Z,1015.87
2017-11-18T03:25:31.124Z,1015.82
2017-11-18T03:26:39.739Z,1015.84
2017-11-18T03:27:48.365Z,1015.83
2017-11-18T03:28:57.246Z,1015.79
2017-11-18T03:30:05.882Z,1015.78
2017-11-18T03:31:14.513Z,1015.78
2017-11-18T03:32:23.135Z,1015.75
2017-11-18T03:33:31.757Z,1015.73
2017-11-18T03:34:40.384Z,1015.73
2017-11-18T03:35:49.001Z,1015.75
2017-11-18T03:36:57.623Z,1015.74
2017-11-18T03:38:06.249Z,1015.73
2017-11-18T03:39:14.877Z,1015.71
2017-11-18T03:40:23.486Z,1015.7
2017-11-18T03:41:32.109Z,1015.7
2017-11-18T03:42:40.729Z,1015.68
2017-11-18T03:43:49.361Z,1015.7
2017-11-18T03:44:57.977Z,1015.67
2017-11-18T03:46:06.604Z,1015.72
2017-11-18T03:47:15.229Z,1015.7
2017-11-18T03:48:24.113Z,1015.7
2017-11-18T03:49:32.736Z,1015.69
2017-11-18T03:50:41.371Z,1015.65
2017-11-18T03:51:49.980Z,1015.64
2017-11-18T03:52:58.609Z,1015.65
2017-11-18T03:54:07.234Z,1015.65
2017-11-18T03:55:15.867Z,1015.64
2017-11-18T03:56:24.479Z,1015.67
2017-11-18T03:57:33.109Z,1015.67
2017-11-18T03:58:41.722Z,1015.64
2017-11-18T03:59:50.351Z,1015.65
2017-11-18T04:00:58.970Z,1015.69
2017-11-18T04:02:07.590Z,1015.61
2017-11-18T04:03:16.218Z,1015.6
2017-11-18T04:04:24.841Z,1015.6
2017-11-18T04:05:33.461Z,1015.51
2017-11-18T04:06:42.093Z,1015.53
2017-11-18T04:07:50.712Z,1015.47
2017-11-18T04:08:59.334Z,1015.42
2017-11-18T04:10:07.960Z,1015.37
2017-11-18T04:11:16.848Z,1015.37
2017-11-18T04:12:25.732Z,1015.34
2017-11-18T04:13:34.359Z,1015.35
2017-11-18T04:14:42.977Z,1015.39
2017-11-18T04:15:51.609Z,1015.41
2017-11-18T04:17:00.228Z,1015.36
2017-11-18T04:18:08.854Z,1015.35
2017-11-18T04:19:17.481Z,1015.33
2017-11-18T04:20:26.095Z,1015.33
2017-11-18T04:21:34.725Z,1015.32
2017-11-18T04:22:43.348Z,1015.32
2017-11-18T04:23:51.965Z,1015.29
2017-11-18T04:25:00.596Z,1015.33
2017-11-18T04:26:09.217Z,1015.32
2017-11-18T04:27:17.849Z,1015.3
2017-11-18T04:28:26.723Z,1015.26
2017-11-18T04:29:35.348Z,1015.21
2017-11-18T04:30:43.977Z,1015.17
2017-11-18T04:31:52.596Z,1015.15
2017-11-18T04:33:01.215Z,1015.13
2017-11-18T04:34:09.843Z,1015.12
2017-11-18T04:35:18.468Z,1015.13
2017-11-18T04:36:27.082Z,1015.08
2017-11-18T04:37:35.707Z,1015.08
2017-11-18T04:38:44.330Z,1015.06
2017-11-18T04:39:52.953Z,1015.01
2017-11-18T04:41:01.572Z,1014.95
2017-11-18T04:42:10.459Z,1014.92
2017-11-18T04:43:19.090Z,1014.91
2017-11-18T04:44:27.987Z,1014.9
2017-11-18T04:45:36.618Z,1014.91
2017-11-18T04:46:45.235Z,1014.92
2017-11-18T04:47:53.860Z,1014.87
2017-11-18T04:49:02.478Z,1014.93
2017-11-18T04:50:11.110Z,1014.87
2017-11-18T04:51:19.726Z,1014.86
2017-11-18T04:52:28.343Z,1014.84
2017-11-18T04:53:36.965Z,1014.8
2017-11-18T04:54:45.591Z,1014.85
2017-11-18T04:55:54.481Z,1014.83
2017-11-18T04:57:03.107Z,1014.8
2017-11-18T04:58:11.721Z,1014.81
2017-11-18T04:59:20.345Z,1014.78
2017-11-18T05:00:28.969Z,1014.71
2017-11-18T05:01:37.619Z,1014.7
2017-11-18T05:02:46.478Z,1014.72
2017-11-18T05:03:55.104Z,1014.69
2017-11-18T05:05:03.733Z,1014.69
2017-11-18T05:06:12.354Z,1014.66
2017-11-18T05:07:20.987Z,1014.64
2017-11-18T05:08:29.890Z,1014.67
2017-11-18T05:09:38.509Z,1014.64
2017-11-18T05:10:47.137Z,1014.67
2017-11-18T05:11:55.754Z,1014.67
2017-11-18T05:13:04.381Z,1014.64
2017-11-18T05:14:13.003Z,1014.63
2017-11-18T05:15:21.625Z,1014.62
2017-11-18T05:16:30.283Z,1014.6
2017-11-18T05:17:39.405Z,1014.53
2017-11-18T05:18:48.029Z,1014.53
2017-11-18T05:19:56.915Z,1014.55
2017-11-18T05:21:05.537Z,1014.55
2017-11-18T05:22:14.169Z,1014.54
2017-11-18T05:23:22.791Z,1014.55
2017-11-18T05:24:31.412Z,1014.5
2017-11-18T05:25:40.044Z,1014.49
2017-11-18T05:26:48.663Z,1014.44
2017-11-18T05:27:57.289Z,1014.44
2017-11-18T05:29:05.904Z,1014.4
2017-11-18T05:30:14.838Z,1014.38
2017-11-18T05:31:23.457Z,1014.4
2017-11-18T05:32:32.081Z,1014.36
2017-11-18T05:33:40.698Z,1014.38
2017-11-18T05:34:49.329Z,1014.39
2017-11-18T05:35:57.957Z,1014.41
2017-11-18T05:37:06.575Z,1014.36
2017-11-18T05:38:15.218Z,1014.32
2017-11-18T05:39:23.836Z,1014.32
2017-11-18T05:40:32.460Z,1014.29
2017-11-18T05:41:41.347Z,1014.24
2017-11-18T05:42:49.968Z,1014.22
2017-11-18T05:43:58.867Z,1014.24
2017-11-18T05:45:07.489Z,1014.25
2017-11-18T05:46:16.109Z,1014.24
2017-11-18T05:47:24.743Z,1014.23
2017-11-18T05:48:33.372Z,1014.22
2017-11-18T05:49:42.274Z,1014.19
2017-11-18T05:50:50.901Z,1014.13
2017-11-18T05:51:59.525Z,1014.17
2017-11-18T05:53:08.142Z,1014.09
2017-11-18T05:54:16.763Z,1014.12
2017-11-18T05:55:25.396Z,1014.05
2017-11-18T05:56:34.287Z,1014.08
2017-11-18T05:57:42.911Z,1014.05
2017-11-18T05:58:51.528Z,1014.02
2017-11-18T06:00:00.154Z,1014.02
2017-11-18T06:01:08.779Z,1014.01
2017-11-18T06:02:17.395Z,1014.04
2017-11-18T06:03:26.298Z,1014.08
2017-11-18T06:04:34.920Z,1014.04
2017-11-18T06:05:43.542Z,1014
2017-11-18T06:06:52.166Z,1014
2017-11-18T06:08:00.795Z,1013.97
2017-11-18T06:09:09.418Z,1013.9
2017-11-18T06:10:18.316Z,1013.91
2017-11-18T06:11:26.927Z,1013.9
2017-11-18T06:12:35.549Z,1013.89
2017-11-18T06:13:44.176Z,1013.86
2017-11-18T06:14:52.791Z,1013.88
2017-11-18T06:16:01.418Z,1013.83
2017-11-18T06:17:10.049Z,1013.87
2017-11-18T06:18:18.673Z,1013.84
2017-11-18T06:19:27.306Z,1013.8
2017-11-18T06:20:35.922Z,1013.79
2017-11-18T06:21:44.567Z,1013.79
2017-11-18T06:22:53.169Z,1013.73
2017-11-18T06:24:01.782Z,1013.77
2017-11-18T06:25:10.415Z,1013.82
2017-11-18T06:26:19.036Z,1013.78
2017-11-18T06:27:27.665Z,1013.69
2017-11-18T06:28:36.291Z,1013.76
2017-11-18T06:29:44.905Z,1013.72
2017-11-18T06:30:53.796Z,1013.76
2017-11-18T06:32:02.422Z,1013.67
2017-11-18T06:33:11.039Z,1013.74
2017-11-18T06:34:19.937Z,1013.68
2017-11-18T06:35:28.565Z,1013.68
2017-11-18T06:36:37.184Z,1013.71
2017-11-18T06:37:45.805Z,1013.67
2017-11-18T06:38:54.441Z,1013.7
2017-11-18T06:40:03.325Z,1013.67
2017-11-18T06:41:11.950Z,1013.7
2017-11-18T06:42:20.565Z,1013.68
2017-11-18T06:43:29.450Z,1013.64
2017-11-18T06:44:38.073Z,1013.61
2017-11-18T06:45:46.693Z,1013.6
2017-11-18T06:46:55.322Z,1013.61
2017-11-18T06:48:03.939Z,1013.68
2017-11-18T06:49:12.570Z,1013.75
2017-11-18T06:50:21.196Z,1013.75
2017-11-18T06:51:29.815Z,1013.72
2017-11-18T06:52:38.440Z,1013.72
2017-11-18T06:53:47.344Z,1013.74
2017-11-18T06:54:55.967Z,1013.77
2017-11-18T06:56:04.597Z,1013.72
2017-11-18T06:57:13.484Z,1013.68
2017-11-18T06:58:22.112Z,1013.75
2017-11-18T06:59:31.003Z,1013.73
2017-11-18T07:00:39.617Z,1013.75
2017-11-18T07:01:48.244Z,1013.79
2017-11-18T07:02:56.867Z,1013.76
2017-11-18T07:04:05.485Z,1013.74
2017-11-18T07:05:14.103Z,1013.8
2017-11-18T07:06:22.733Z,1013.76
2017-11-18T07:07:31.354Z,1013.76
2017-11-18T07:08:39.982Z,1013.79
2017-11-18T07:09:48.597Z,1013.79
2017-11-18T07:10:57.236Z,1013.76
2017-11-18T07:12:05.863Z,1013.81
2017-11-18T07:13:14.483Z,1013.76
2017-11-18T07:14:23.106Z,1013.82
2017-11-18T07:15:31.737Z,1013.86
2017-11-18T07:16:40.364Z,1013.81
2017-11-18T07:17:48.985Z,1013.83
2017-11-18T07:18:57.603Z,1013.85
2017-11-18T07:20:06.229Z,1013.75
2017-11-18T07:21:14.852Z,1013.76
2017-11-18T07:22:23.473Z,1013.75
2017-11-18T07:23:32.105Z,1013.74
2017-11-18T07:24:40.728Z,1013.79
2017-11-18T07:25:49.349Z,1013.75
2017-11-18T07:26:57.977Z,1013.71
2017-11-18T07:28:06.600Z,1013.67
2017-11-18T07:29:15.487Z,1013.68
2017-11-18T07:30:24.114Z,1013.67
2017-11-18T07:31:32.737Z,1013.66
2017-11-18T07:32:41.357Z,1013.66
2017-11-18T07:33:49.989Z,1013.64
2017-11-18T07:34:58.606Z,1013.6
2017-11-18T07:36:07.228Z,1013.62
2017-11-18T07:37:15.859Z,1013.63
2017-11-18T07:38:24.476Z,1013.61
2017-11-18T07:39:33.103Z,1013.62
2017-11-18T07:40:41.721Z,1013.57
2017-11-18T07:41:50.346Z,1013.59
2017-11-18T07:42:58.979Z,1013.57
2017-11-18T07:44:07.603Z,1013.57
2017-11-18T07:45:16.227Z,1013.56
2017-11-18T07:46:24.858Z,1013.53
2017-11-18T07:47:33.477Z,1013.53
2017-11-18T07:48:42.366Z,1013.48
2017-11-18T07:49:50.997Z,1013.49
2017-11-18T07:50:59.623Z,1013.51
2017-11-18T07:52:08.239Z,1013.46
2017-11-18T07:53:16.866Z,1013.41
2017-11-18T07:54:25.486Z,1013.39
2017-11-18T07:55:34.117Z,1013.39
2017-11-18T07:56:42.734Z,1013.34
2017-11-18T07:57:51.357Z,1013.34
2017-11-18T07:59:00.258Z,1013.35
2017-11-18T08:00:08.882Z,1013.33
2017-11-18T08:01:17.498Z,1013.28
2017-11-18T08:02:26.124Z,1013.26
2017-11-18T08:03:34.750Z,1013.3
2017-11-18T08:04:43.367Z,1013.28
2017-11-18T08:05:51.990Z,1013.27
2017-11-18T08:07:00.885Z,1013.23
2017-11-18T08:08:09.510Z,1013.29
2017-11-18T08:09:18.140Z,1013.23
2017-11-18T08:10:26.758Z,1013.21
2017-11-18T08:11:35.391Z,1013.25
2017-11-18T08:12:44.013Z,1013.21
2017-11-18T08:13:52.626Z,1013.18
2017-11-18T08:15:01.257Z,1013.16
2017-11-18T08:16:09.877Z,1013.19
2017-11-18T08:17:18.503Z,1013.23
2017-11-18T08:18:27.128Z,1013.12
2017-11-18T08:19:35.745Z,1013.19
2017-11-18T08:20:44.374Z,1013.24
2017-11-18T08:21:53.025Z,1013.14
2017-11-18T08:23:01.633Z,1013.22
2017-11-18T08:24:10.246Z,1013.17
2017-11-18T08:25:18.871Z,1013.2
2017-11-18T08:26:27.493Z,1013.18
2017-11-18T08:27:36.123Z,1013.12
2017-11-18T08:28:44.743Z,1013.1
2017-11-18T08:29:53.368Z,1013.14
2017-11-18T08:31:01.995Z,1013.04
2017-11-18T08:32:10.613Z,1013.05
2017-11-18T08:33:19.239Z,1013.06
2017-11-18T08:34:27.862Z,1013.01
2017-11-18T08:35:36.481Z,1013
2017-11-18T08:36:45.119Z,1013.01
2017-11-18T08:37:53.735Z,1013
2017-11-18T08:39:02.368Z,1012.99
2017-11-18T08:40:11.258Z,1012.99
2017-11-18T08:41:19.878Z,1012.9
2017-11-18T08:42:28.503Z,1012.92
2017-11-18T08:43:37.128Z,1012.89
2017-11-18T08:44:45.745Z,1012.86
2017-11-18T08:45:54.370Z,1012.86
2017-11-18T08:47:03.005Z,1012.82
2017-11-18T08:48:11.625Z,1012.77
2017-11-18T08:49:20.243Z,1012.69
2017-11-18T08:50:28.875Z,1012.72
2017-11-18T08:51:37.494Z,1012.72
2017-11-18T08:52:46.118Z,1012.68
2017-11-18T08:53:54.739Z,1012.67
2017-11-18T08:55:03.361Z,1012.63
2017-11-18T08:56:12.257Z,1012.66
2017-11-18T08:57:20.884Z,1012.65
2017-11-18T08:58:29.504Z,1012.62
2017-11-18T08:59:38.136Z,1012.55
2017-11-18T09:00:46.763Z,1012.57
2017-11-18T09:01:55.379Z,1012.54
2017-11-18T09:03:04.002Z,1012.49
2017-11-18T09:04:12.635Z,1012.52
2017-11-18T09:05:21.524Z,1012.44
2017-11-18T09:06:30.151Z,1012.49
2017-11-18T09:07:38.770Z,1012.46
2017-11-18T09:08:47.407Z,1012.4
2017-11-18T09:09:56.031Z,1012.34
2017-11-18T09:11:04.651Z,1012.36
2017-11-18T09:12:13.551Z,1012.28
2017-11-18T09:13:22.168Z,1012.3
2017-11-18T09:14:30.799Z,1012.24
2017-11-18T09:15:39.421Z,1012.24
2017-11-18T09:16:48.044Z,1012.25
2017-11-18T09:17:56.676Z,1012.22
2017-11-18T09:19:05.295Z,1012.25
2017-11-18T09:20:13.916Z,1012.28
2017-11-18T09:21:22.540Z,1012.18
2017-11-18T09:22:31.427Z,1012.25
2017-11-18T09:23:40.069Z,1012.2
2017-11-18T09:24:48.676Z,1012.17
2017-11-18T09:25:57.296Z,1012.14
2017-11-18T09:27:05.928Z,1012.21
2017-11-18T09:28:14.552Z,1012.16
2017-11-18T09:29:23.177Z,1012.19
2017-11-18T09:30:31.801Z,1012.21
2017-11-18T09:31:40.430Z,1012.17
2017-11-18T09:32:49.318Z,1012.19
2017-11-18T09:33:57.938Z,1012.29
2017-11-18T09:35:06.823Z,1012.26
2017-11-18T09:36:15.456Z,1012.29
2017-11-18T09:37:24.078Z,1012.26
2017-11-18T09:38:32.698Z,1012.37
2017-11-18T09:39:41.663Z,1012.35
2017-11-18T09:40:50.289Z,1012.28
2017-11-18T09:41:58.907Z,1012.29
2017-11-18T09:43:07.535Z,1012.31
2017-11-18T09:44:16.157Z,1012.22
2017-11-18T09:45:24.779Z,1012.21
2017-11-18T09:46:33.668Z,1012.16
2017-11-18T09:47:42.296Z,1012.23
2017-11-18T09:48:50.925Z,1012.15
2017-11-18T09:49:59.556Z,1012.14
2017-11-18T09:51:08.448Z,1012.1
2017-11-18T09:52:17.076Z,1012.06
2017-11-18T09:53:25.710Z,1012.03
2017-11-18T09:54:34.596Z,1012.03
2017-11-18T09:55:43.496Z,1012
2017-11-18T09:56:52.105Z,1012.02
2017-11-18T09:58:00.728Z,1011.95
2017-11-18T09:59:09.623Z,1011.95
2017-11-18T10:00:18.251Z,1011.91
2017-11-18T10:01:26.873Z,1011.99
2017-11-18T10:02:35.499Z,1011.92
2017-11-18T10:03:44.126Z,1011.94
2017-11-18T10:04:53.017Z,1012.02
2017-11-18T10:06:01.645Z,1012
2017-11-18T10:07:10.261Z,1012.01
2017-11-18T10:08:18.887Z,1011.93
2017-11-18T10:09:27.789Z,1011.99
2017-11-18T10:10:36.407Z,1011.92
2017-11-18T10:11:45.036Z,1011.98
2017-11-18T10:12:53.653Z,1011.95
2017-11-18T10:14:02.278Z,1011.91
2017-11-18T10:15:10.905Z,1011.83
2017-11-18T10:16:19.525Z,1011.86
2017-11-18T10:17:28.153Z,1011.75
2017-11-18T10:18:36.784Z,1011.81
2017-11-18T10:19:45.409Z,1011.84
2017-11-18T10:20:54.033Z,1011.74
2017-11-18T10:22:02.653Z,1011.7
2017-11-18T10:23:11.289Z,1011.72
2017-11-18T10:24:20.185Z,1011.66
2017-11-18T10:25:28.808Z,1011.74
2017-11-18T10:26:37.431Z,1011.65
2017-11-18T10:27:46.067Z,1011.6
2017-11-18T10:28:54.687Z,1011.56
2017-11-18T10:30:03.310Z,1011.54
2017-11-18T10:31:11.943Z,1011.56
2017-11-18T10:32:20.564Z,1011.48
2017-11-18T10:33:29.188Z,1011.48
2017-11-18T10:34:37.810Z,1011.57
2017-11-18T10:35:46.435Z,1011.54
2017-11-18T10:36:55.067Z,1011.5
2017-11-18T10:38:03.690Z,1011.47
2017-11-18T10:39:12.314Z,1011.44
2017-11-18T10:40:20.946Z,1011.48
2017-11-18T10:41:29.560Z,1011.42
2017-11-18T10:42:38.189Z,1011.45
2017-11-18T10:43:46.820Z,1011.38
2017-11-18T10:44:55.447Z,1011.38
2017-11-18T10:46:04.070Z,1011.31
2017-11-18T10:47:12.693Z,1011.4
2017-11-18T10:48:21.325Z,1011.32
2017-11-18T10:49:29.935Z,1011.29
2017-11-18T10:50:38.563Z,1011.2
2017-11-18T10:51:47.191Z,1011.08
2017-11-18T10:52:55.814Z,1011.09
2017-11-18T10:54:04.439Z,1011.22
2017-11-18T10:55:13.069Z,1011.15
2017-11-18T10:56:21.694Z,1011.15
2017-11-18T10:57:30.317Z,1011.19
2017-11-18T10:58:38.949Z,1011.26
2017-11-18T10:59:47.570Z,1011.19
2017-11-18T11:00:56.198Z,1011.14
2017-11-18T11:02:04.821Z,1011.09
2017-11-18T11:03:13.443Z,1011.1
2017-11-18T11:04:22.072Z,1011.08
2017-11-18T11:05:30.693Z,1011.06
2017-11-18T11:06:39.313Z,1011.07
2017-11-18T11:07:47.942Z,1011.07
2017-11-18T11:08:56.565Z,1011.07
2017-11-18T11:10:05.196Z,1011.04
2017-11-18T11:11:13.815Z,1011
2017-11-18T11:12:22.707Z,1010.98
2017-11-18T11:13:31.342Z,1010.9
2017-11-18T11:14:39.967Z,1010.9
2017-11-18T11:15:48.586Z,1010.95
2017-11-18T11:16:57.220Z,1010.94
2017-11-18T11:18:06.142Z,1010.89
2017-11-18T11:19:14.787Z,1010.85
2017-11-18T11:20:23.391Z,1010.8
2017-11-18T11:21:32.013Z,1010.77
2017-11-18T11:22:40.651Z,1010.72
2017-11-18T11:23:49.271Z,1010.65
2017-11-18T11:24:57.898Z,1010.58
2017-11-18T11:26:06.522Z,1010.62
2017-11-18T11:27:15.416Z,1010.64
2017-11-18T11:28:24.312Z,1010.6
2017-11-18T11:29:32.940Z,1010.53
2017-11-18T11:30:41.569Z,1010.59
2017-11-18T11:31:50.185Z,1010.51
2017-11-18T11:32:58.817Z,1010.48
2017-11-18T11:34:07.438Z,1010.41
2017-11-18T11:35:16.338Z,1010.49
2017-11-18T11:36:25.235Z,1010.48
2017-11-18T11:37:33.856Z,1010.31
2017-11-18T11:38:42.482Z,1010.32
2017-11-18T11:39:51.108Z,1010.37
2017-11-18T11:40:59.726Z,1010.39
2017-11-18T11:42:08.349Z,1010.43
2017-11-18T11:43:16.975Z,1010.41
2017-11-18T11:44:25.589Z,1010.41
2017-11-18T11:45:34.221Z,1010.41
2017-11-18T11:46:42.848Z,1010.38
2017-11-18T11:47:51.476Z,1010.38
2017-11-18T11:49:00.105Z,1010.38
2017-11-18T11:50:08.723Z,1010.22
2017-11-18T11:51:17.348Z,1010.39
2017-11-18T11:52:25.978Z,1010.32
2017-11-18T11:53:34.602Z,1010.26
2017-11-18T11:54:43.227Z,1010.3
2017-11-18T11:55:51.859Z,1010.22
2017-11-18T11:57:00.487Z,1010.26
2017-11-18T11:58:09.113Z,1010.24
2017-11-18T11:59:18.008Z,1010.25
2017-11-18T12:00:26.629Z,1010.22
2017-11-18T12:01:35.257Z,1010.24
2017-11-18T12:02:43.887Z,1010.2
2017-11-18T12:03:52.503Z,1010.19
2017-11-18T12:05:01.135Z,1010.13
2017-11-18T12:06:09.757Z,1010.13
2017-11-18T12:07:18.380Z,1010.1
2017-11-18T12:08:27.014Z,1010.05
2017-11-18T12:09:35.640Z,1010.18
2017-11-18T12:10:44.271Z,1010.07
2017-11-18T12:11:52.888Z,1010.16
2017-11-18T12:13:01.781Z,1010.08
2017-11-18T12:14:10.411Z,1010.12
2017-11-18T12:15:19.037Z,1010.03
2017-11-18T12:16:27.670Z,1010.06
2017-11-18T12:17:36.285Z,1009.99
2017-11-18T12:18:44.919Z,1010.01
2017-11-18T12:19:53.538Z,1009.98
2017-11-18T12:21:02.158Z,1010
2017-11-18T12:22:10.802Z,1009.99
2017-11-18T12:23:19.971Z,1009.92
2017-11-18T12:24:28.593Z,1009.93
2017-11-18T12:25:37.221Z,1009.91
2017-11-18T12:26:45.852Z,1009.87
2017-11-18T12:27:54.481Z,1009.76
2017-11-18T12:29:03.101Z,1009.72
2017-11-18T12:30:11.733Z,1009.75
2017-11-18T12:31:20.351Z,1009.72
2017-11-18T12:32:28.983Z,1009.73
2017-11-18T12:33:37.610Z,1009.77
2017-11-18T12:34:46.501Z,1009.67
2017-11-18T12:35:55.132Z,1009.55
2017-11-18T12:37:03.754Z,1009.88
2017-11-18T12:38:12.653Z,1009.73
2017-11-18T12:39:21.280Z,1009.75
2017-11-18T12:40:29.905Z,1009.77
2017-11-18T12:41:38.528Z,1009.78
2017-11-18T12:42:47.156Z,1009.8
2017-11-18T12:43:55.785Z,1009.68
2017-11-18T12:45:04.403Z,1009.68
2017-11-18T12:46:13.032Z,1009.73
2017-11-18T12:47:21.659Z,1009.72
2017-11-18T12:48:30.573Z,1009.78
2017-11-18T12:49:39.194Z,1009.73
2017-11-18T12:50:47.835Z,1009.67
2017-11-18T12:51:56.446Z,1009.65
2017-11-18T12:53:05.076Z,1009.73
2017-11-18T12:54:13.697Z,1009.65
2017-11-18T12:55:22.323Z,1009.58
2017-11-18T12:56:30.952Z,1009.55
2017-11-18T12:57:39.570Z,1009.58
2017-11-18T12:58:48.197Z,1009.45
2017-11-18T12:59:56.826Z,1009.4
2017-11-18T13:01:05.464Z,1009.38
2017-11-18T13:02:14.081Z,1009.43
2017-11-18T13:03:22.705Z,1009.45
2017-11-18T13:04:31.328Z,1009.41
2017-11-18T13:05:39.957Z,1009.37
2017-11-18T13:06:48.843Z,1009.28
2017-11-18T13:07:57.471Z,1009.22
2017-11-18T13:09:06.094Z,1009.24
2017-11-18T13:10:14.719Z,1009.25
2017-11-18T13:11:23.352Z,1009.24
2017-11-18T13:12:32.233Z,1009.18
2017-11-18T13:13:40.864Z,1009.13
2017-11-18T13:14:49.485Z,1009.11
2017-11-18T13:15:58.118Z,1009.04
2017-11-18T13:17:06.741Z,1009.01
2017-11-18T13:18:15.370Z,1009.15
2017-11-18T13:19:23.993Z,1009.06
2017-11-18T13:20:32.620Z,1009.12
2017-11-18T13:21:41.237Z,1009.13
2017-11-18T13:22:49.878Z,1009.02
2017-11-18T13:23:58.497Z,1009.1
2017-11-18T13:25:07.114Z,1009.07
2017-11-18T13:26:15.744Z,1009.16
2017-11-18T13:27:24.368Z,1009.1
2017-11-18T13:28:32.992Z,1009.17
2017-11-18T13:29:41.623Z,1009.21
2017-11-18T13:30:50.239Z,1009.26
2017-11-18T13:31:58.864Z,1009.2
2017-11-18T13:33:07.503Z,1009.17
2017-11-18T13:34:16.118Z,1009.14
2017-11-18T13:35:24.748Z,1009.12
2017-11-18T13:36:33.372Z,1009.08
2017-11-18T13:37:41.997Z,1009.06
2017-11-18T13:38:50.620Z,1009.06
2017-11-18T13:39:59.253Z,1009.08
2017-11-18T13:41:07.876Z,1009.09
2017-11-18T13:42:16.504Z,1009.01
2017-11-18T13:43:25.137Z,1008.98
2017-11-18T13:44:33.754Z,1008.88
2017-11-18T13:45:42.384Z,1008.93
2017-11-18T13:46:51.001Z,1008.91
2017-11-18T13:47:59.894Z,1008.93
2017-11-18T13:49:08.528Z,1008.95
2017-11-18T13:50:17.685Z,1009
2017-11-18T13:51:26.305Z,1008.96
2017-11-18T13:52:34.937Z,1008.85
2017-11-18T13:53:43.559Z,1008.94
2017-11-18T13:54:52.182Z,1008.87